Terminal Aerodrome Forecast
Issued by NWS

Home | Current Version | Previous Version | Graphics & Text | Print | Product List | Glossary On
Versions: 1 2 3 4 5 6 7 8 9 10 11 12 13 14 15 16 17 18 19 20 21 22 23 24 25 26 27
000
FTUS43 KLSX 052343
TAFSUS
TAF
KSUS 052343Z 0600/0624 11006KT P6SM SCT250
     FM060400 12004KT P6SM OVC090
     FM060600 00000KT 5SM BR OVC050
     FM060800 00000KT 4SM BR OVC010
     FM061400 31007KT P6SM BKN015
     FM061700 31011G18KT P6SM BKN030
     FM061800 30012G18KT P6SM BKN045
     FM061900 30012G18KT P6SM SCT080=

USA.gov is the U.S. government's official web portal to all federal, state and local government web resources and services.